createdAt,value
2019-03-06T00:01:55.344Z,8.70
2019-03-06T00:04:23.313Z,8.80
2019-03-06T00:06:51.621Z,8.70
2019-03-06T00:09:19.987Z,8.70
2019-03-06T00:11:48.149Z,8.70
2019-03-06T00:14:16.377Z,8.70
2019-03-06T00:16:44.471Z,8.80
2019-03-06T00:19:12.755Z,8.80
2019-03-06T00:21:40.749Z,8.90
2019-03-06T00:24:08.763Z,8.80
2019-03-06T00:26:36.686Z,8.70
2019-03-06T00:29:04.724Z,8.80
2019-03-06T00:31:33.062Z,8.70
2019-03-06T00:34:01.338Z,8.70
2019-03-06T00:36:31.335Z,8.50
2019-03-06T00:39:01.337Z,8.50
2019-03-06T00:41:41.399Z,8.50
2019-03-06T00:44:09.339Z,8.50
2019-03-06T00:46:37.422Z,8.60
2019-03-06T00:49:05.803Z,8.60
2019-03-06T00:51:33.917Z,8.70
2019-03-06T00:54:01.968Z,8.70
2019-03-06T00:56:29.822Z,8.80
2019-03-06T00:58:57.761Z,8.70
2019-03-06T01:01:26.140Z,8.80
2019-03-06T01:03:54.369Z,8.70
2019-03-06T01:06:22.402Z,8.70
2019-03-06T01:08:50.564Z,8.70
2019-03-06T01:11:19.571Z,8.60
2019-03-06T01:13:47.776Z,8.60
2019-03-06T01:16:16.096Z,8.60
2019-03-06T01:18:44.423Z,8.60
2019-03-06T01:21:12.464Z,8.60
2019-03-06T01:23:40.469Z,8.70
2019-03-06T01:26:08.720Z,8.70
2019-03-06T01:28:37.126Z,8.60
2019-03-06T01:31:05.119Z,8.40
2019-03-06T01:33:45.099Z,8.50
2019-03-06T01:36:50.845Z,8.60
2019-03-06T01:39:48.168Z,8.70
2019-03-06T01:42:35.681Z,8.60
2019-03-06T01:45:07.508Z,8.60
2019-03-06T01:47:35.531Z,8.50
2019-03-06T01:50:06.255Z,8.40
2019-03-06T01:52:34.232Z,8.50
2019-03-06T01:55:02.861Z,8.60
2019-03-06T01:57:31.179Z,8.80
2019-03-06T01:59:59.547Z,9.00
2019-03-06T02:02:27.612Z,9.00
2019-03-06T02:04:55.907Z,9.00
2019-03-06T02:07:24.689Z,9.00
2019-03-06T02:09:52.831Z,8.90
2019-03-06T02:12:20.767Z,8.90
2019-03-06T02:14:49.464Z,9.00
2019-03-06T02:17:17.379Z,9.00
2019-03-06T02:19:45.525Z,9.00
2019-03-06T02:22:13.765Z,9.00
2019-03-06T02:24:41.704Z,9.00
2019-03-06T02:27:09.810Z,9.00
2019-03-06T02:29:37.736Z,8.90
2019-03-06T02:32:05.673Z,8.80
2019-03-06T02:34:33.762Z,8.80
2019-03-06T02:37:02.161Z,8.90
2019-03-06T02:39:30.508Z,8.90
2019-03-06T02:41:58.461Z,9.00
2019-03-06T02:44:26.572Z,9.00
2019-03-06T02:46:54.470Z,9.00
2019-03-06T02:49:22.531Z,9.00
2019-03-06T02:51:50.519Z,8.90
2019-03-06T02:54:18.627Z,8.80
2019-03-06T02:56:46.533Z,8.80
2019-03-06T02:59:34.075Z,8.80
2019-03-06T03:02:16.604Z,8.80
2019-03-06T03:04:53.999Z,8.80
2019-03-06T03:07:22.052Z,8.60
2019-03-06T03:09:50.196Z,8.60
2019-03-06T03:12:18.081Z,8.70
2019-03-06T03:14:46.618Z,8.50
2019-03-06T03:17:14.897Z,8.30
2019-03-06T03:19:43.080Z,8.40
2019-03-06T03:22:11.383Z,8.50
2019-03-06T03:24:39.328Z,8.30
2019-03-06T03:27:07.152Z,8.20
2019-03-06T03:29:35.125Z,8.10
2019-03-06T03:32:03.161Z,8.10
2019-03-06T03:34:31.443Z,8.20
2019-03-06T03:36:59.778Z,8.20
2019-03-06T03:39:28.052Z,8.20
2019-03-06T03:41:56.036Z,8.30
2019-03-06T03:44:24.159Z,8.30
2019-03-06T03:46:52.069Z,8.20
2019-03-06T03:49:20.389Z,8.20
2019-03-06T03:51:48.755Z,8.10
2019-03-06T03:54:16.896Z,8.00
2019-03-06T03:56:44.920Z,7.90
2019-03-06T03:59:12.978Z,7.90
2019-03-06T04:01:41.130Z,7.90
2019-03-06T04:04:09.341Z,7.90
2019-03-06T04:06:37.417Z,7.90
2019-03-06T04:09:06.831Z,7.90
2019-03-06T04:11:34.926Z,7.90
2019-03-06T04:14:03.090Z,7.80
2019-03-06T04:16:31.293Z,7.80
2019-03-06T04:18:59.221Z,7.80
2019-03-06T04:21:27.695Z,7.80
2019-03-06T04:23:55.667Z,7.80
2019-03-06T04:26:23.704Z,7.80
2019-03-06T04:28:51.633Z,7.80
2019-03-06T04:31:20.163Z,7.90
2019-03-06T04:33:48.059Z,7.90
2019-03-06T04:36:15.929Z,8.00
2019-03-06T04:38:44.214Z,8.00
2019-03-06T04:41:12.658Z,8.10
2019-03-06T04:43:40.893Z,8.00
2019-03-06T04:46:08.927Z,7.70
2019-03-06T04:48:37.084Z,7.60
2019-03-06T04:51:05.655Z,7.60
2019-03-06T04:53:33.662Z,7.50
2019-03-06T04:56:01.537Z,7.60
2019-03-06T04:58:29.592Z,7.60
2019-03-06T05:00:57.580Z,7.70
2019-03-06T05:03:25.528Z,8.00
2019-03-06T05:05:53.487Z,8.10
2019-03-06T05:08:21.735Z,8.10
2019-03-06T05:10:49.646Z,8.10
2019-03-06T05:13:17.833Z,8.00
2019-03-06T05:15:46.064Z,8.00
2019-03-06T05:18:22.716Z,8.00
2019-03-06T05:20:50.912Z,8.00
2019-03-06T05:23:19.102Z,8.10
2019-03-06T05:25:47.057Z,8.10
2019-03-06T05:28:15.131Z,8.20
2019-03-06T05:30:45.208Z,8.10
2019-03-06T05:33:13.913Z,8.00
2019-03-06T05:36:29.870Z,8.30
2019-03-06T05:39:07.107Z,8.60
2019-03-06T05:41:35.052Z,8.50
2019-03-06T05:44:03.612Z,8.40
2019-03-06T05:46:31.664Z,8.70
2019-03-06T05:49:00.114Z,8.80
2019-03-06T05:51:28.368Z,8.50
2019-03-06T05:53:56.387Z,8.50
2019-03-06T05:56:24.672Z,8.70
2019-03-06T05:58:52.692Z,8.50
2019-03-06T06:01:21.259Z,8.30
2019-03-06T06:03:49.928Z,8.20
2019-03-06T06:06:18.099Z,8.20
2019-03-06T06:08:46.154Z,8.30
2019-03-06T06:11:14.303Z,8.20
2019-03-06T06:13:42.756Z,8.20
2019-03-06T06:16:10.956Z,8.40
2019-03-06T06:18:39.050Z,8.10
2019-03-06T06:21:29.627Z,8.10
2019-03-06T06:24:00.801Z,8.10
2019-03-06T06:26:29.279Z,8.40
2019-03-06T06:28:57.244Z,8.40
2019-03-06T06:31:25.682Z,8.70
2019-03-06T06:33:53.687Z,8.40
2019-03-06T06:36:22.363Z,8.50
2019-03-06T06:38:51.039Z,9.00
2019-03-06T06:41:19.240Z,8.90
2019-03-06T06:43:47.777Z,8.90
2019-03-06T06:46:15.884Z,9.00
2019-03-06T06:48:44.162Z,8.80
2019-03-06T06:52:00.500Z,8.80
2019-03-06T06:55:47.755Z,9.10
2019-03-06T06:59:01.041Z,9.20
2019-03-06T07:02:30.160Z,9.30
2019-03-06T07:05:28.068Z,9.30
2019-03-06T07:08:19.288Z,9.60
2019-03-06T07:11:13.494Z,9.60
2019-03-06T07:14:07.166Z,9.60
2019-03-06T07:17:00.816Z,9.40
2019-03-06T07:19:47.204Z,9.20
2019-03-06T07:22:35.316Z,9.00
2019-03-06T07:25:21.947Z,9.30
2019-03-06T07:28:22.673Z,9.50
2019-03-06T07:31:09.209Z,9.60
2019-03-06T07:33:55.483Z,9.60
2019-03-06T07:36:41.847Z,9.70
2019-03-06T07:39:32.725Z,9.60
2019-03-06T07:42:20.636Z,10.50
2019-03-06T07:46:05.800Z,10.20
2019-03-06T07:49:13.223Z,10.20
2019-03-06T07:51:59.366Z,10.50
2019-03-06T07:55:05.242Z,10.50
2019-03-06T07:57:45.113Z,10.30
2019-03-06T08:00:17.313Z,10.30
2019-03-06T08:03:22.262Z,10.40
2019-03-06T08:05:50.281Z,10.10
2019-03-06T08:08:18.524Z,10.30
2019-03-06T08:10:47.039Z,10.20
2019-03-06T08:13:33.040Z,10.10
2019-03-06T08:16:13.288Z,10.20
2019-03-06T08:18:57.311Z,10.30
2019-03-06T08:21:52.320Z,10.60
2019-03-06T08:24:38.688Z,10.30
2019-03-06T08:27:06.891Z,10.40
2019-03-06T08:29:35.302Z,10.90
2019-03-06T08:32:41.672Z,11.20
2019-03-06T08:35:10.161Z,11.20
2019-03-06T08:37:38.174Z,11.50
2019-03-06T08:40:07.535Z,11.50
2019-03-06T08:42:35.541Z,11.70
2019-03-06T08:45:05.139Z,11.40
2019-03-06T08:47:42.122Z,11.50
2019-03-06T08:50:20.394Z,11.50
2019-03-06T08:53:09.445Z,11.60
2019-03-06T08:55:55.878Z,11.80
2019-03-06T08:58:52.440Z,11.80
2019-03-06T09:02:00.060Z,12.00
2019-03-06T09:04:41.244Z,11.90
2019-03-06T09:07:27.779Z,11.90
2019-03-06T09:10:05.941Z,12.20
2019-03-06T09:12:53.836Z,12.20
2019-03-06T09:15:44.044Z,12.10
2019-03-06T09:18:40.633Z,12.10
2019-03-06T09:21:43.144Z,11.70
2019-03-06T09:24:21.957Z,11.60
2019-03-06T09:27:08.456Z,11.30
2019-03-06T09:30:05.023Z,11.50
2019-03-06T09:32:51.320Z,11.40
2019-03-06T09:35:35.448Z,11.30
2019-03-06T09:38:26.410Z,11.40
2019-03-06T09:41:03.012Z,11.50
2019-03-06T09:44:03.182Z,11.60
2019-03-06T09:46:41.995Z,11.40
2019-03-06T09:49:19.050Z,11.40
2019-03-06T09:52:12.515Z,11.60
2019-03-06T09:54:48.640Z,11.60
2019-03-06T09:57:39.209Z,11.60
2019-03-06T10:00:33.595Z,11.70
2019-03-06T10:03:30.321Z,11.80
2019-03-06T10:06:24.146Z,12.00
2019-03-06T10:09:04.156Z,12.30
2019-03-06T10:11:40.913Z,12.40
2019-03-06T10:14:18.916Z,12.40
2019-03-06T10:16:56.371Z,12.20
2019-03-06T10:19:31.066Z,12.40
2019-03-06T10:21:59.330Z,12.40
2019-03-06T10:24:27.600Z,12.50
2019-03-06T10:26:55.461Z,12.90
2019-03-06T10:29:23.989Z,13.00
2019-03-06T10:31:52.013Z,12.80
2019-03-06T10:34:20.831Z,12.90
2019-03-06T10:36:48.935Z,13.10
2019-03-06T10:39:19.230Z,13.40
2019-03-06T10:41:47.432Z,13.60
2019-03-06T10:44:15.644Z,13.50
2019-03-06T10:46:45.071Z,13.50
2019-03-06T10:49:13.277Z,13.70
2019-03-06T10:51:41.567Z,13.60
2019-03-06T10:54:09.887Z,13.80
2019-03-06T10:56:38.481Z,13.90
2019-03-06T10:59:07.733Z,14.00
2019-03-06T11:01:36.030Z,13.90
2019-03-06T11:04:24.188Z,14.00
2019-03-06T11:06:52.773Z,14.00
2019-03-06T11:09:21.081Z,14.50
2019-03-06T11:11:49.957Z,14.50
2019-03-06T11:14:18.265Z,14.20
2019-03-06T11:16:46.842Z,14.20
2019-03-06T11:19:15.603Z,14.30
2019-03-06T11:21:43.605Z,14.50
2019-03-06T11:24:12.032Z,14.40
2019-03-06T11:26:40.805Z,14.10
2019-03-06T11:29:10.502Z,14.10
2019-03-06T11:31:39.251Z,14.10
2019-03-06T11:34:08.790Z,14.00
2019-03-06T11:36:36.889Z,14.20
2019-03-06T11:39:09.901Z,14.20
2019-03-06T11:41:38.367Z,14.30
2019-03-06T11:44:06.940Z,14.20
2019-03-06T11:46:35.158Z,14.40
2019-03-06T11:49:06.435Z,14.60
2019-03-06T11:51:33.538Z,14.70
2019-03-06T11:54:01.813Z,14.80
2019-03-06T11:56:31.236Z,14.90
2019-03-06T11:58:59.391Z,15.00
2019-03-06T12:01:29.799Z,15.40
2019-03-06T12:03:58.533Z,15.20
2019-03-06T12:06:26.773Z,15.40
2019-03-06T12:08:54.842Z,15.40
2019-03-06T12:11:22.793Z,15.60
2019-03-06T12:13:51.383Z,15.40
2019-03-06T12:16:19.773Z,15.40
2019-03-06T12:18:48.333Z,15.40
2019-03-06T12:21:16.541Z,15.60
2019-03-06T12:23:44.972Z,16.00
2019-03-06T12:26:13.916Z,15.80
2019-03-06T12:28:42.521Z,15.90
2019-03-06T12:31:10.675Z,16.00
2019-03-06T12:33:38.923Z,16.30
2019-03-06T12:36:07.014Z,16.10
2019-03-06T12:38:35.088Z,16.10
2019-03-06T12:41:04.220Z,16.20
2019-03-06T12:43:33.741Z,16.40
2019-03-06T12:46:23.722Z,16.70
2019-03-06T12:49:14.181Z,16.40
2019-03-06T12:51:42.451Z,16.50
2019-03-06T12:54:10.691Z,16.70
2019-03-06T12:56:38.788Z,16.70
2019-03-06T12:59:07.480Z,16.30
2019-03-06T13:01:35.616Z,16.00
2019-03-06T13:04:04.797Z,15.90
2019-03-06T13:06:33.155Z,15.90
2019-03-06T13:09:07.650Z,16.10
2019-03-06T13:11:35.713Z,16.10
2019-03-06T13:14:04.193Z,16.10
2019-03-06T13:16:32.941Z,16.30
2019-03-06T13:19:01.457Z,16.30
2019-03-06T13:21:30.813Z,16.40
2019-03-06T13:23:59.594Z,16.70
2019-03-06T13:26:28.067Z,16.90
2019-03-06T13:28:57.736Z,16.80
2019-03-06T13:31:25.915Z,16.60
2019-03-06T13:34:11.763Z,16.60
2019-03-06T13:36:40.387Z,16.50
2019-03-06T13:39:09.462Z,16.30
2019-03-06T13:41:37.760Z,16.40
2019-03-06T13:44:07.441Z,16.20
2019-03-06T13:46:36.414Z,16.10
2019-03-06T13:49:04.680Z,16.00
2019-03-06T13:51:32.800Z,16.10
2019-03-06T13:54:00.830Z,16.20
2019-03-06T13:56:29.309Z,16.40
2019-03-06T13:58:57.725Z,16.30
2019-03-06T14:01:25.963Z,16.40
2019-03-06T14:03:54.509Z,16.30
2019-03-06T14:06:22.628Z,16.50
2019-03-06T14:08:51.439Z,16.50
2019-03-06T14:11:19.724Z,16.60
2019-03-06T14:13:48.226Z,16.50
2019-03-06T14:16:16.555Z,16.50
2019-03-06T14:18:44.764Z,16.50
2019-03-06T14:21:13.411Z,16.40
2019-03-06T14:23:42.056Z,16.50
2019-03-06T14:26:10.900Z,16.60
2019-03-06T14:28:39.554Z,16.80
2019-03-06T14:31:08.270Z,16.90
2019-03-06T14:33:39.695Z,17.10
2019-03-06T14:36:07.869Z,17.20
2019-03-06T14:38:35.859Z,17.20
2019-03-06T14:41:03.983Z,17.30
2019-03-06T14:43:32.515Z,17.50
2019-03-06T14:46:00.613Z,17.50
2019-03-06T14:48:28.808Z,17.50
2019-03-06T14:50:57.026Z,17.60
2019-03-06T14:53:25.080Z,17.70
2019-03-06T14:55:53.193Z,17.80
2019-03-06T14:58:23.084Z,17.80
2019-03-06T15:00:51.978Z,17.70
2019-03-06T15:03:20.439Z,17.80
2019-03-06T15:05:48.966Z,17.70
2019-03-06T15:08:17.132Z,17.70
2019-03-06T15:10:45.185Z,17.80
2019-03-06T15:13:13.147Z,17.80
2019-03-06T15:15:41.455Z,17.80
2019-03-06T15:18:10.987Z,17.90
2019-03-06T15:20:39.323Z,17.90
2019-03-06T15:23:07.470Z,17.80
2019-03-06T15:25:35.705Z,17.80
2019-03-06T15:28:03.988Z,17.70
2019-03-06T15:30:32.090Z,17.60
2019-03-06T15:33:00.332Z,17.60
2019-03-06T15:35:28.484Z,17.70
2019-03-06T15:37:56.700Z,17.70
2019-03-06T15:40:28.497Z,17.70
2019-03-06T15:42:56.752Z,17.70
2019-03-06T15:45:28.114Z,17.60
2019-03-06T15:47:56.334Z,17.60
2019-03-06T15:50:25.121Z,17.60
2019-03-06T15:52:53.351Z,17.40
2019-03-06T15:55:24.103Z,17.30
2019-03-06T15:57:52.224Z,17.30
2019-03-06T16:00:46.402Z,17.30
2019-03-06T16:03:11.944Z,17.10
2019-03-06T16:05:40.749Z,17.00
2019-03-06T16:08:09.407Z,16.90
2019-03-06T16:10:38.371Z,16.80
2019-03-06T16:13:07.232Z,16.80
2019-03-06T16:15:35.287Z,16.80
2019-03-06T16:18:04.121Z,16.70
2019-03-06T16:20:32.528Z,16.70
2019-03-06T16:23:00.798Z,16.50
2019-03-06T16:25:36.442Z,16.50
2019-03-06T16:28:00.456Z,16.40
2019-03-06T16:30:30.017Z,16.60
2019-03-06T16:32:59.418Z,16.50
2019-03-06T16:35:28.360Z,16.40
2019-03-06T16:37:57.075Z,16.10
2019-03-06T16:40:25.908Z,16.20
2019-03-06T16:42:54.721Z,16.30
2019-03-06T16:45:24.817Z,16.20
2019-03-06T16:47:53.825Z,16.00
2019-03-06T16:50:23.223Z,16.10
2019-03-06T16:52:51.706Z,16.00
2019-03-06T16:55:21.278Z,16.00
2019-03-06T16:57:49.757Z,15.90
2019-03-06T17:00:21.358Z,15.70
2019-03-06T17:02:49.750Z,15.70
2019-03-06T17:05:18.871Z,15.60
2019-03-06T17:07:47.648Z,15.70
2019-03-06T17:10:17.806Z,15.60
2019-03-06T17:12:46.283Z,15.40
2019-03-06T17:15:16.681Z,15.30
2019-03-06T17:17:45.918Z,15.10
2019-03-06T17:20:17.832Z,15.10
2019-03-06T17:22:49.536Z,15.10
2019-03-06T17:25:18.067Z,14.80
2019-03-06T17:27:46.308Z,14.90
2019-03-06T17:30:18.652Z,15.00
2019-03-06T17:32:58.873Z,14.80
2019-03-06T17:35:28.336Z,14.70
2019-03-06T17:37:56.764Z,14.60
2019-03-06T17:40:25.490Z,14.80
2019-03-06T17:42:53.935Z,14.90
2019-03-06T17:45:23.965Z,15.00
2019-03-06T17:47:52.532Z,15.10
2019-03-06T17:50:22.686Z,14.90
2019-03-06T17:52:51.121Z,15.10
2019-03-06T17:55:20.201Z,15.00
2019-03-06T17:57:48.337Z,14.90
2019-03-06T18:00:18.774Z,14.80
2019-03-06T18:02:47.551Z,14.70
2019-03-06T18:05:15.802Z,14.60
2019-03-06T18:07:43.878Z,14.40
2019-03-06T18:10:16.105Z,14.20
2019-03-06T18:12:44.118Z,14.30
2019-03-06T18:15:13.701Z,14.30
2019-03-06T18:17:42.064Z,14.30
2019-03-06T18:20:13.031Z,14.40
2019-03-06T18:22:42.072Z,14.60
2019-03-06T18:25:14.814Z,14.60
2019-03-06T18:27:42.892Z,14.70
2019-03-06T18:30:13.997Z,14.90
2019-03-06T18:32:42.588Z,15.10
2019-03-06T18:35:12.591Z,15.30
2019-03-06T18:37:40.961Z,15.40
2019-03-06T18:40:13.312Z,15.40
2019-03-06T18:42:42.695Z,15.40
2019-03-06T18:45:15.375Z,15.40
2019-03-06T18:47:44.007Z,15.60
2019-03-06T18:50:16.142Z,15.60
2019-03-06T18:52:44.572Z,15.60
2019-03-06T18:55:14.304Z,15.60
2019-03-06T18:57:42.667Z,15.50
2019-03-06T19:00:16.767Z,15.50
2019-03-06T19:02:44.987Z,15.50
2019-03-06T19:05:14.051Z,15.60
2019-03-06T19:07:42.227Z,15.60
2019-03-06T19:10:12.722Z,15.70
2019-03-06T19:12:41.314Z,15.70
2019-03-06T19:15:12.762Z,15.70
2019-03-06T19:17:40.914Z,15.60
2019-03-06T19:20:09.557Z,15.60
2019-03-06T19:22:38.199Z,15.50
2019-03-06T19:25:08.979Z,15.50
2019-03-06T19:27:37.100Z,15.50
2019-03-06T19:30:15.960Z,15.60
2019-03-06T19:32:44.144Z,15.50
2019-03-06T19:35:12.245Z,15.40
2019-03-06T19:37:40.803Z,15.40
2019-03-06T19:40:09.304Z,15.40
2019-03-06T19:42:37.404Z,15.30
2019-03-06T19:45:06.779Z,15.40
2019-03-06T19:47:35.105Z,15.40
2019-03-06T19:50:03.482Z,15.40
2019-03-06T19:52:31.533Z,15.40
2019-03-06T19:54:59.912Z,15.40
2019-03-06T19:57:41.272Z,15.40
2019-03-06T20:00:09.849Z,15.50
2019-03-06T20:02:38.167Z,15.40
2019-03-06T20:05:07.933Z,15.40
2019-03-06T20:07:36.229Z,15.40
2019-03-06T20:10:04.801Z,15.40
2019-03-06T20:12:33.179Z,15.30
2019-03-06T20:15:01.424Z,15.20
2019-03-06T20:17:30.021Z,15.10
2019-03-06T20:19:58.343Z,15.10
2019-03-06T20:22:26.535Z,15.20
2019-03-06T20:24:55.034Z,15.50
2019-03-06T20:27:23.556Z,15.60
2019-03-06T20:29:52.157Z,15.50
2019-03-06T20:32:20.647Z,15.40
2019-03-06T20:34:48.812Z,15.40
2019-03-06T20:37:17.080Z,15.40
2019-03-06T20:39:45.447Z,15.40
2019-03-06T20:42:13.702Z,15.40
2019-03-06T20:44:42.816Z,15.60
2019-03-06T20:47:11.202Z,15.80
2019-03-06T20:49:40.202Z,16.10
2019-03-06T20:52:08.914Z,16.30
2019-03-06T20:54:38.164Z,16.40
2019-03-06T20:57:06.624Z,16.40
2019-03-06T20:59:35.656Z,16.30
2019-03-06T21:02:04.478Z,16.30
2019-03-06T21:04:33.385Z,16.40
2019-03-06T21:07:02.652Z,16.50
2019-03-06T21:09:31.383Z,16.50
2019-03-06T21:11:59.699Z,16.50
2019-03-06T21:14:27.997Z,16.40
2019-03-06T21:16:58.158Z,16.40
2019-03-06T21:19:26.451Z,16.50
2019-03-06T21:21:54.921Z,16.50
2019-03-06T21:24:23.409Z,16.30
2019-03-06T21:26:51.397Z,16.30
2019-03-06T21:29:22.827Z,16.10
2019-03-06T21:31:51.203Z,15.90
2019-03-06T21:34:19.816Z,15.90
2019-03-06T21:36:47.969Z,15.90
2019-03-06T21:39:24.576Z,16.00
2019-03-06T21:41:52.624Z,16.00
2019-03-06T21:44:21.024Z,16.00
2019-03-06T21:46:48.981Z,16.00
2019-03-06T21:49:17.087Z,16.00
2019-03-06T21:51:45.399Z,16.00
2019-03-06T21:54:13.523Z,16.10
2019-03-06T21:56:41.473Z,16.10
2019-03-06T21:59:09.535Z,16.00
2019-03-06T22:01:37.774Z,15.90
2019-03-06T22:04:05.947Z,15.80
2019-03-06T22:06:33.994Z,15.70
2019-03-06T22:09:02.119Z,15.70
2019-03-06T22:11:30.371Z,15.60
2019-03-06T22:13:58.350Z,15.60
2019-03-06T22:16:26.606Z,15.60
2019-03-06T22:18:54.655Z,15.70
2019-03-06T22:21:23.166Z,15.70
2019-03-06T22:23:51.497Z,15.80
2019-03-06T22:26:19.381Z,15.70
2019-03-06T22:28:47.572Z,15.70
2019-03-06T22:31:15.604Z,15.80
2019-03-06T22:33:43.674Z,15.70
2019-03-06T22:36:11.666Z,15.60
2019-03-06T22:38:39.651Z,15.80
2019-03-06T22:41:07.738Z,15.70
2019-03-06T22:43:36.394Z,15.80
2019-03-06T22:46:04.463Z,15.60
2019-03-06T22:48:32.648Z,15.70
2019-03-06T22:51:01.027Z,15.60
2019-03-06T22:53:29.269Z,15.60
2019-03-06T22:55:57.256Z,15.50
2019-03-06T22:58:25.438Z,15.50
2019-03-06T23:01:07.485Z,15.40
2019-03-06T23:03:35.648Z,15.30
2019-03-06T23:06:04.552Z,15.30
2019-03-06T23:08:32.906Z,15.20
2019-03-06T23:11:01.579Z,15.20
2019-03-06T23:13:29.459Z,15.20
2019-03-06T23:15:57.452Z,15.20
2019-03-06T23:18:25.713Z,15.00
2019-03-06T23:20:53.648Z,14.80
2019-03-06T23:23:22.092Z,14.70
2019-03-06T23:25:50.083Z,14.60
2019-03-06T23:28:18.359Z,14.60
2019-03-06T23:30:47.362Z,14.60
2019-03-06T23:33:15.391Z,14.50
2019-03-06T23:35:44.657Z,14.50
2019-03-06T23:38:12.580Z,14.50
2019-03-06T23:40:40.479Z,14.50
2019-03-06T23:43:08.643Z,14.40
2019-03-06T23:45:36.743Z,14.50
2019-03-06T23:48:05.039Z,14.40
2019-03-06T23:50:32.982Z,14.40
2019-03-06T23:53:03.911Z,14.50
2019-03-06T23:55:31.826Z,14.40
2019-03-06T23:57:59.947Z,14.50
